createdAt,value
2019-03-19T00:02:11.223Z,4.13
2019-03-19T00:04:37.526Z,4.77
2019-03-19T00:07:04.094Z,4.10
2019-03-19T00:09:30.399Z,4.87
2019-03-19T00:11:57.894Z,3.43
2019-03-19T00:14:24.555Z,3.90
2019-03-19T00:16:51.709Z,4.07
2019-03-19T00:19:18.016Z,4.77
2019-03-19T00:21:44.274Z,4.00
2019-03-19T00:24:10.592Z,4.10
2019-03-19T00:26:36.885Z,3.70
2019-03-19T00:29:03.555Z,3.80
2019-03-19T00:31:29.822Z,4.70
2019-03-19T00:33:56.128Z,4.00
2019-03-19T00:36:22.427Z,4.20
2019-03-19T00:38:48.741Z,4.63
2019-03-19T00:41:15.325Z,4.03
2019-03-19T00:43:41.612Z,4.10
2019-03-19T00:46:08.178Z,3.90
2019-03-19T00:48:34.474Z,4.23
2019-03-19T00:51:00.769Z,3.77
2019-03-19T00:53:27.083Z,4.00
2019-03-19T00:55:53.373Z,4.90
2019-03-19T00:58:19.682Z,3.93
2019-03-19T01:00:45.975Z,4.00
2019-03-19T01:03:12.275Z,4.17
2019-03-19T01:05:38.573Z,3.77
2019-03-19T01:08:04.950Z,4.77
2019-03-19T01:10:31.474Z,4.40
2019-03-19T01:12:57.756Z,4.03
2019-03-19T01:15:24.033Z,3.43
2019-03-19T01:17:50.329Z,4.60
2019-03-19T01:20:16.604Z,3.80
2019-03-19T01:22:43.004Z,3.87
2019-03-19T01:25:10.141Z,4.00
2019-03-19T01:27:36.454Z,4.70
2019-03-19T01:30:09.318Z,3.77
2019-03-19T01:32:35.686Z,3.83
2019-03-19T01:35:03.386Z,4.60
2019-03-19T01:37:29.695Z,4.30
2019-03-19T01:39:56.003Z,4.63
2019-03-19T01:42:22.298Z,4.07
2019-03-19T01:44:48.583Z,5.47
2019-03-19T01:47:14.862Z,4.20
2019-03-19T01:49:41.169Z,4.20
2019-03-19T01:52:07.465Z,3.73
2019-03-19T01:54:33.773Z,4.30
2019-03-19T01:57:00.178Z,3.80
2019-03-19T01:59:26.745Z,4.27
2019-03-19T02:01:53.021Z,4.20
2019-03-19T02:04:19.344Z,4.27
2019-03-19T02:06:45.660Z,4.73
2019-03-19T02:09:12.237Z,4.80
2019-03-19T02:11:38.674Z,4.77
2019-03-19T02:14:04.933Z,4.77
2019-03-19T02:16:31.216Z,4.20
2019-03-19T02:18:57.507Z,3.97
2019-03-19T02:21:23.809Z,4.50
2019-03-19T02:23:50.083Z,4.20
2019-03-19T02:26:17.091Z,4.50
2019-03-19T02:28:43.490Z,4.03
2019-03-19T02:31:09.842Z,4.60
2019-03-19T02:33:36.076Z,4.13
2019-03-19T02:36:02.378Z,4.17
2019-03-19T02:38:28.666Z,4.37
2019-03-19T02:40:54.969Z,4.43
2019-03-19T02:43:22.832Z,4.20
2019-03-19T02:45:49.316Z,3.77
2019-03-19T02:48:15.627Z,4.80
2019-03-19T02:50:41.933Z,4.23
2019-03-19T02:53:08.560Z,5.67
2019-03-19T02:55:34.857Z,4.43
2019-03-19T02:58:01.153Z,4.27
2019-03-19T03:00:27.569Z,4.33
2019-03-19T03:02:53.843Z,3.83
2019-03-19T03:05:20.688Z,4.73
2019-03-19T03:07:47.223Z,4.43
2019-03-19T03:10:14.168Z,4.60
2019-03-19T03:12:40.505Z,4.63
2019-03-19T03:15:08.823Z,5.03
2019-03-19T03:17:35.111Z,4.90
2019-03-19T03:20:01.803Z,4.60
2019-03-19T03:22:28.099Z,4.90
2019-03-19T03:24:54.381Z,5.17
2019-03-19T03:27:20.683Z,4.97
2019-03-19T03:29:46.981Z,4.03
2019-03-19T03:32:13.274Z,5.03
2019-03-19T03:34:39.583Z,4.43
2019-03-19T03:37:05.869Z,4.80
2019-03-19T03:39:32.450Z,5.40
2019-03-19T03:41:58.894Z,4.30
2019-03-19T03:44:25.228Z,5.00
2019-03-19T03:46:51.506Z,4.40
2019-03-19T03:49:17.796Z,4.83
2019-03-19T03:51:44.110Z,5.00
2019-03-19T03:54:10.435Z,4.67
2019-03-19T03:56:36.721Z,4.57
2019-03-19T03:59:03.132Z,4.60
2019-03-19T04:01:29.518Z,4.77
2019-03-19T04:03:56.017Z,5.23
2019-03-19T04:06:22.414Z,4.70
2019-03-19T04:08:48.707Z,5.10
2019-03-19T04:11:15.028Z,4.73
2019-03-19T04:13:41.366Z,5.07
2019-03-19T04:16:07.973Z,4.83
2019-03-19T04:18:34.284Z,5.40
2019-03-19T04:21:00.589Z,5.13
2019-03-19T04:23:26.867Z,5.17
2019-03-19T04:25:53.178Z,4.83
2019-03-19T04:28:19.463Z,4.80
2019-03-19T04:30:46.348Z,5.60
2019-03-19T04:33:12.657Z,5.30
2019-03-19T04:35:38.977Z,5.10
2019-03-19T04:38:05.270Z,5.37
2019-03-19T04:40:31.586Z,5.43
2019-03-19T04:42:57.874Z,5.10
2019-03-19T04:45:24.186Z,4.83
2019-03-19T04:47:50.472Z,4.83
2019-03-19T04:50:16.801Z,5.80
2019-03-19T04:52:43.459Z,5.63
2019-03-19T04:55:12.559Z,5.93
2019-03-19T04:57:38.883Z,5.53
2019-03-19T05:00:13.541Z,5.93
2019-03-19T05:02:39.832Z,5.70
2019-03-19T05:05:08.472Z,5.33
2019-03-19T05:07:34.866Z,6.07
2019-03-19T05:10:01.306Z,5.47
2019-03-19T05:12:27.603Z,5.50
2019-03-19T05:14:54.001Z,5.50
2019-03-19T05:17:20.293Z,6.07
2019-03-19T05:19:46.572Z,5.47
2019-03-19T05:22:12.923Z,5.97
2019-03-19T05:24:39.220Z,6.13
2019-03-19T05:27:05.538Z,5.57
2019-03-19T05:29:31.847Z,6.63
2019-03-19T05:31:58.146Z,5.90
2019-03-19T05:34:24.525Z,5.47
2019-03-19T05:36:50.880Z,6.23
2019-03-19T05:39:17.206Z,6.50
2019-03-19T05:41:43.811Z,6.50
2019-03-19T05:44:10.109Z,6.63
2019-03-19T05:46:36.414Z,6.00
2019-03-19T05:49:02.810Z,6.23
2019-03-19T05:51:29.109Z,6.30
2019-03-19T05:53:55.401Z,5.40
2019-03-19T05:56:21.712Z,5.90
2019-03-19T05:58:48.010Z,5.33
2019-03-19T06:01:14.326Z,6.00
2019-03-19T06:03:40.661Z,6.60
2019-03-19T06:06:06.965Z,6.40
2019-03-19T06:08:33.455Z,5.70
2019-03-19T06:10:59.755Z,5.63
2019-03-19T06:13:26.053Z,5.70
2019-03-19T06:15:52.411Z,6.00
2019-03-19T06:18:18.713Z,6.57
2019-03-19T06:20:45.026Z,6.17
2019-03-19T06:23:11.316Z,6.23
2019-03-19T06:25:37.760Z,6.00
2019-03-19T06:28:04.280Z,7.27
2019-03-19T06:30:30.771Z,6.17
2019-03-19T06:32:57.096Z,6.30
2019-03-19T06:35:23.379Z,6.27
2019-03-19T06:37:49.675Z,6.33
2019-03-19T06:40:17.305Z,6.03
2019-03-19T06:42:43.605Z,6.20
2019-03-19T06:45:12.916Z,10.93
2019-03-19T06:47:39.303Z,8.53
2019-03-19T06:50:11.414Z,8.00
2019-03-19T06:52:37.716Z,8.10
2019-03-19T06:55:06.830Z,6.57
2019-03-19T06:57:39.103Z,8.00
2019-03-19T07:00:01.412Z,8.10
2019-03-19T07:02:27.856Z,7.47
2019-03-19T07:04:54.173Z,7.33
2019-03-19T07:07:20.477Z,8.03
2019-03-19T07:09:46.760Z,8.60
2019-03-19T07:12:13.061Z,8.20
2019-03-19T07:14:39.377Z,7.63
2019-03-19T07:17:05.699Z,7.67
2019-03-19T07:19:32.005Z,8.20
2019-03-19T07:21:58.282Z,7.93
2019-03-19T07:24:24.591Z,7.70
2019-03-19T07:26:50.898Z,9.00
2019-03-19T07:29:17.219Z,8.07
2019-03-19T07:31:43.793Z,8.00
2019-03-19T07:34:10.122Z,7.57
2019-03-19T07:36:36.493Z,8.03
2019-03-19T07:39:05.668Z,7.33
2019-03-19T07:41:31.961Z,7.93
2019-03-19T07:43:58.536Z,7.47
2019-03-19T07:46:25.108Z,8.30
2019-03-19T07:48:51.438Z,8.33
2019-03-19T07:51:17.804Z,9.57
2019-03-19T07:53:44.097Z,7.50
2019-03-19T07:56:10.653Z,9.07
2019-03-19T07:58:45.083Z,7.73
2019-03-19T08:01:05.083Z,7.97
2019-03-19T08:03:31.405Z,8.37
2019-03-19T08:05:57.699Z,7.97
2019-03-19T08:08:24.004Z,8.17
2019-03-19T08:10:50.414Z,7.67
2019-03-19T08:13:16.643Z,7.47
2019-03-19T08:15:42.936Z,7.40
2019-03-19T08:18:09.510Z,8.00
2019-03-19T08:20:35.814Z,8.83
2019-03-19T08:23:02.313Z,8.03
2019-03-19T08:25:28.607Z,8.33
2019-03-19T08:27:54.971Z,8.80
2019-03-19T08:30:24.448Z,8.37
2019-03-19T08:32:50.639Z,8.47
2019-03-19T08:35:17.049Z,7.73
2019-03-19T08:37:43.331Z,6.90
2019-03-19T08:40:16.516Z,8.00
2019-03-19T08:42:42.921Z,7.33
2019-03-19T08:45:13.987Z,7.87
2019-03-19T08:47:40.545Z,7.43
2019-03-19T08:50:10.242Z,7.07
2019-03-19T08:52:36.571Z,7.57
2019-03-19T08:55:04.059Z,6.80
2019-03-19T08:57:30.361Z,7.47
2019-03-19T08:59:57.248Z,6.43
2019-03-19T09:02:23.556Z,6.10
2019-03-19T09:04:49.860Z,6.90
2019-03-19T09:07:16.170Z,7.77
2019-03-19T09:09:42.510Z,5.93
2019-03-19T09:12:08.795Z,5.50
2019-03-19T09:14:35.084Z,6.17
2019-03-19T09:17:01.398Z,6.10
2019-03-19T09:19:27.792Z,6.90
2019-03-19T09:21:54.109Z,6.17
2019-03-19T09:24:20.388Z,6.53
2019-03-19T09:26:46.999Z,6.77
2019-03-19T09:29:17.103Z,6.60
2019-03-19T09:31:41.401Z,6.13
2019-03-19T09:34:07.682Z,7.13
2019-03-19T09:36:33.994Z,6.77
2019-03-19T09:39:00.355Z,7.00
2019-03-19T09:41:26.628Z,6.33
2019-03-19T09:43:53.664Z,6.57
2019-03-19T09:46:20.041Z,6.67
2019-03-19T09:48:47.751Z,6.80
2019-03-19T09:51:14.063Z,6.33
2019-03-19T09:53:40.633Z,7.33
2019-03-19T09:56:06.922Z,6.90
2019-03-19T09:58:33.212Z,7.07
2019-03-19T10:00:59.547Z,6.80
2019-03-19T10:03:25.851Z,7.00
2019-03-19T10:05:52.148Z,7.07
2019-03-19T10:08:18.451Z,7.87
2019-03-19T10:10:44.785Z,8.73
2019-03-19T10:13:11.147Z,7.33
2019-03-19T10:15:37.463Z,7.60
2019-03-19T10:18:04.237Z,8.93
2019-03-19T10:20:30.797Z,7.80
2019-03-19T10:22:57.173Z,7.97
2019-03-19T10:25:23.623Z,7.70
2019-03-19T10:27:50.014Z,7.80
2019-03-19T10:30:20.369Z,7.70
2019-03-19T10:32:46.777Z,8.30
2019-03-19T10:35:13.367Z,8.03
2019-03-19T10:37:39.686Z,7.20
2019-03-19T10:40:07.684Z,7.73
2019-03-19T10:42:33.971Z,7.40
2019-03-19T10:45:00.337Z,7.87
2019-03-19T10:47:26.602Z,8.30
2019-03-19T10:49:52.904Z,7.53
2019-03-19T10:52:19.215Z,7.90
2019-03-19T10:54:45.525Z,7.30
2019-03-19T10:57:11.834Z,6.90
2019-03-19T10:59:48.596Z,7.33
2019-03-19T11:02:06.218Z,7.90
2019-03-19T11:04:32.529Z,7.43
2019-03-19T11:06:59.065Z,7.87
2019-03-19T11:09:25.386Z,7.20
2019-03-19T11:11:51.691Z,6.90
2019-03-19T11:14:18.006Z,6.63
2019-03-19T11:16:44.355Z,7.80
2019-03-19T11:19:10.740Z,7.97
2019-03-19T11:21:37.294Z,7.37
2019-03-19T11:24:09.997Z,6.93
2019-03-19T11:26:36.302Z,6.60
2019-03-19T11:29:02.751Z,6.70
2019-03-19T11:31:29.048Z,6.10
2019-03-19T11:33:55.375Z,6.13
2019-03-19T11:36:21.896Z,6.77
2019-03-19T11:38:48.454Z,7.00
2019-03-19T11:41:14.715Z,6.53
2019-03-19T11:43:41.028Z,5.70
2019-03-19T11:46:08.578Z,6.10
2019-03-19T11:48:34.859Z,6.77
2019-03-19T11:51:01.147Z,6.13
2019-03-19T11:53:27.438Z,6.53
2019-03-19T11:55:54.007Z,5.83
2019-03-19T11:58:20.319Z,6.57
2019-03-19T12:00:51.558Z,6.17
2019-03-19T12:03:17.952Z,5.70
2019-03-19T12:05:44.225Z,5.87
2019-03-19T12:08:10.524Z,7.10
2019-03-19T12:10:36.820Z,6.93
2019-03-19T12:13:03.612Z,6.30
2019-03-19T12:15:29.906Z,6.93
2019-03-19T12:17:56.209Z,7.00
2019-03-19T12:20:22.503Z,8.33
2019-03-19T12:22:48.786Z,8.00
2019-03-19T12:25:15.141Z,7.67
2019-03-19T12:27:42.098Z,7.37
2019-03-19T12:30:21.713Z,7.53
2019-03-19T12:32:41.689Z,8.10
2019-03-19T12:35:09.178Z,7.10
2019-03-19T12:37:35.461Z,7.17
2019-03-19T12:40:04.330Z,8.00
2019-03-19T12:42:30.707Z,9.73
2019-03-19T12:44:57.258Z,8.17
2019-03-19T12:47:23.546Z,8.07
2019-03-19T12:49:49.948Z,8.40
2019-03-19T12:52:16.232Z,8.03
2019-03-19T12:54:42.548Z,8.93
2019-03-19T12:57:08.855Z,9.20
2019-03-19T12:59:35.142Z,7.77
2019-03-19T13:02:01.702Z,7.57
2019-03-19T13:04:28.006Z,7.40
2019-03-19T13:06:54.313Z,8.00
2019-03-19T13:09:20.620Z,7.87
2019-03-19T13:11:46.966Z,8.80
2019-03-19T13:14:14.004Z,7.87
2019-03-19T13:16:42.755Z,8.60
2019-03-19T13:19:08.774Z,8.80
2019-03-19T13:21:35.056Z,9.37
2019-03-19T13:24:01.277Z,8.70
2019-03-19T13:26:27.611Z,8.63
2019-03-19T13:28:53.911Z,9.07
2019-03-19T13:31:20.250Z,9.03
2019-03-19T13:33:46.561Z,9.10
2019-03-19T13:36:12.853Z,9.53
2019-03-19T13:38:39.195Z,8.63
2019-03-19T13:41:05.475Z,8.43
2019-03-19T13:43:31.767Z,9.10
2019-03-19T13:45:58.063Z,9.10
2019-03-19T13:48:24.401Z,9.03
2019-03-19T13:50:50.948Z,9.37
2019-03-19T13:53:17.259Z,8.13
2019-03-19T13:55:43.564Z,8.87
2019-03-19T13:58:10.128Z,9.10
2019-03-19T14:00:36.683Z,9.53
2019-03-19T14:03:03.485Z,8.37
2019-03-19T14:05:29.794Z,9.50
2019-03-19T14:07:56.112Z,9.17
2019-03-19T14:10:22.396Z,8.50
2019-03-19T14:12:48.711Z,9.57
2019-03-19T14:15:18.841Z,8.83
2019-03-19T14:17:45.117Z,9.40
2019-03-19T14:20:13.434Z,9.70
2019-03-19T14:22:39.721Z,8.93
2019-03-19T14:25:08.223Z,8.67
2019-03-19T14:27:34.509Z,8.30
2019-03-19T14:30:00.815Z,8.17
2019-03-19T14:32:27.119Z,7.20
2019-03-19T14:34:53.455Z,7.67
2019-03-19T14:37:19.752Z,6.93
2019-03-19T14:39:46.041Z,6.93
2019-03-19T14:42:12.334Z,7.33
2019-03-19T14:44:38.644Z,8.07
2019-03-19T14:47:04.945Z,7.77
2019-03-19T14:49:31.274Z,7.57
2019-03-19T14:51:57.594Z,7.30
2019-03-19T14:54:23.879Z,7.77
2019-03-19T14:56:50.234Z,7.60
2019-03-19T14:59:16.528Z,7.50
2019-03-19T15:01:42.898Z,7.33
2019-03-19T15:04:09.201Z,7.60
2019-03-19T15:06:35.502Z,7.03
2019-03-19T15:09:01.973Z,6.87
2019-03-19T15:11:28.246Z,7.33
2019-03-19T15:13:55.297Z,6.93
2019-03-19T15:16:21.730Z,7.73
2019-03-19T15:18:48.030Z,7.97
2019-03-19T15:21:14.342Z,7.20
2019-03-19T15:23:40.624Z,7.60
2019-03-19T15:26:06.931Z,6.97
2019-03-19T15:28:33.225Z,7.50
2019-03-19T15:30:59.526Z,7.03
2019-03-19T15:33:25.802Z,7.30
2019-03-19T15:35:52.087Z,8.70
2019-03-19T15:38:18.393Z,7.40
2019-03-19T15:40:44.704Z,8.73
2019-03-19T15:43:10.986Z,7.50
2019-03-19T15:45:37.334Z,7.90
2019-03-19T15:48:03.780Z,7.20
2019-03-19T15:50:30.125Z,7.13
2019-03-19T15:52:56.421Z,7.47
2019-03-19T15:55:22.830Z,6.57
2019-03-19T15:57:49.140Z,6.47
2019-03-19T16:00:19.479Z,6.80
2019-03-19T16:02:45.881Z,7.20
2019-03-19T16:05:12.839Z,6.13
2019-03-19T16:07:39.230Z,7.20
2019-03-19T16:10:08.245Z,7.07
2019-03-19T16:12:34.816Z,6.77
2019-03-19T16:15:01.232Z,7.73
2019-03-19T16:17:27.530Z,7.30
2019-03-19T16:19:53.847Z,6.83
2019-03-19T16:22:20.151Z,6.77
2019-03-19T16:24:46.456Z,6.83
2019-03-19T16:27:12.768Z,7.13
2019-03-19T16:29:39.072Z,7.57
2019-03-19T16:32:05.394Z,7.53
2019-03-19T16:34:31.967Z,7.17
2019-03-19T16:36:58.320Z,7.40
2019-03-19T16:39:24.624Z,6.60
2019-03-19T16:41:50.913Z,7.07
2019-03-19T16:44:17.210Z,7.33
2019-03-19T16:46:43.543Z,7.20
2019-03-19T16:49:09.836Z,6.97
2019-03-19T16:51:36.143Z,7.50
2019-03-19T16:54:02.643Z,7.07
2019-03-19T16:56:28.938Z,6.97
2019-03-19T16:58:55.295Z,7.10
2019-03-19T17:01:21.507Z,7.93
2019-03-19T17:03:47.816Z,7.03
2019-03-19T17:06:14.109Z,7.43
2019-03-19T17:08:40.471Z,8.80
2019-03-19T17:11:06.764Z,8.13
2019-03-19T17:13:33.092Z,8.13
2019-03-19T17:15:59.366Z,7.80
2019-03-19T17:18:25.654Z,7.13
2019-03-19T17:20:51.967Z,8.30
2019-03-19T17:23:18.302Z,7.67
2019-03-19T17:25:44.611Z,7.33
2019-03-19T17:28:10.906Z,8.03
2019-03-19T17:30:37.311Z,7.87
2019-03-19T17:33:03.881Z,7.93
2019-03-19T17:35:30.440Z,8.23
2019-03-19T17:37:56.935Z,7.67
2019-03-19T17:40:23.193Z,7.73
2019-03-19T17:42:49.465Z,7.17
2019-03-19T17:45:16.453Z,8.17
2019-03-19T17:47:42.753Z,7.77
2019-03-19T17:50:15.579Z,7.37
2019-03-19T17:52:41.858Z,7.40
2019-03-19T17:55:10.404Z,7.97
2019-03-19T17:57:36.980Z,9.47
2019-03-19T18:00:07.180Z,7.80
2019-03-19T18:02:33.681Z,7.57
2019-03-19T18:05:00.390Z,8.10
2019-03-19T18:07:26.685Z,8.70
2019-03-19T18:09:53.013Z,9.97
2019-03-19T18:12:19.329Z,9.47
2019-03-19T18:14:45.912Z,9.30
2019-03-19T18:17:12.229Z,10.07
2019-03-19T18:19:38.522Z,8.90
2019-03-19T18:22:04.822Z,9.07
2019-03-19T18:24:31.121Z,9.43
2019-03-19T18:26:57.716Z,9.10
2019-03-19T18:29:23.962Z,9.43
2019-03-19T18:31:50.242Z,8.70
2019-03-19T18:34:18.986Z,9.10
2019-03-19T18:36:44.668Z,8.90
2019-03-19T18:39:11.056Z,8.87
2019-03-19T18:41:37.380Z,9.70
2019-03-19T18:44:03.681Z,9.93
2019-03-19T18:46:29.962Z,10.27
2019-03-19T18:48:56.461Z,9.83
2019-03-19T18:51:22.792Z,10.10
2019-03-19T18:53:49.376Z,9.57
2019-03-19T18:56:15.693Z,9.27
2019-03-19T18:58:42.238Z,9.50
2019-03-19T19:01:08.568Z,8.90
2019-03-19T19:03:34.860Z,8.90
2019-03-19T19:06:01.165Z,9.63
2019-03-19T19:08:27.460Z,10.97
2019-03-19T19:10:53.687Z,10.80
2019-03-19T19:13:19.996Z,10.03
2019-03-19T19:15:46.316Z,9.40
2019-03-19T19:18:12.621Z,9.77
2019-03-19T19:20:39.005Z,9.73
2019-03-19T19:23:05.590Z,9.43
2019-03-19T19:25:31.879Z,9.10
2019-03-19T19:27:58.108Z,10.17
2019-03-19T19:30:30.973Z,9.57
2019-03-19T19:33:02.192Z,8.23
2019-03-19T19:35:25.768Z,7.97
2019-03-19T19:37:52.383Z,8.07
2019-03-19T19:40:18.799Z,8.20
2019-03-19T19:42:45.089Z,7.23
2019-03-19T19:45:12.417Z,7.80
2019-03-19T19:47:38.927Z,7.60
2019-03-19T19:50:08.945Z,7.67
2019-03-19T19:52:35.356Z,8.13
2019-03-19T19:55:01.777Z,7.60
2019-03-19T19:57:28.112Z,7.67
2019-03-19T19:59:54.632Z,8.20
2019-03-19T20:02:20.936Z,9.57
2019-03-19T20:04:47.487Z,9.57
2019-03-19T20:07:13.795Z,9.93
2019-03-19T20:09:40.071Z,12.20
2019-03-19T20:12:06.363Z,14.73
2019-03-19T20:14:32.682Z,17.47
2019-03-19T20:16:59.013Z,15.40
2019-03-19T20:19:25.417Z,13.83
2019-03-19T20:21:51.961Z,12.97
2019-03-19T20:24:18.134Z,11.70
2019-03-19T20:26:44.447Z,10.53
2019-03-19T20:29:10.770Z,11.53
2019-03-19T20:31:37.332Z,10.87
2019-03-19T20:34:03.624Z,11.10
2019-03-19T20:36:29.905Z,11.73
2019-03-19T20:38:56.311Z,11.40
2019-03-19T20:41:22.930Z,12.53
2019-03-19T20:43:49.238Z,12.47
2019-03-19T20:46:15.545Z,12.57
2019-03-19T20:48:41.811Z,12.23
2019-03-19T20:51:08.036Z,11.83
2019-03-19T20:53:34.320Z,13.47
2019-03-19T20:56:00.631Z,11.97
2019-03-19T20:58:26.901Z,13.57
2019-03-19T21:00:53.486Z,12.23
2019-03-19T21:03:19.772Z,10.97
2019-03-19T21:05:46.180Z,11.70
2019-03-19T21:08:12.486Z,12.13
2019-03-19T21:10:38.784Z,11.57
2019-03-19T21:13:05.075Z,11.67
2019-03-19T21:15:31.463Z,10.90
2019-03-19T21:17:57.897Z,11.77
2019-03-19T21:20:24.282Z,11.93
2019-03-19T21:22:50.943Z,11.47
2019-03-19T21:25:17.349Z,12.37
2019-03-19T21:27:43.647Z,11.67
2019-03-19T21:30:12.554Z,11.87
2019-03-19T21:32:38.923Z,12.83
2019-03-19T21:35:06.014Z,13.10
2019-03-19T21:37:32.399Z,13.03
2019-03-19T21:39:58.677Z,12.73
2019-03-19T21:42:24.977Z,11.17
2019-03-19T21:44:51.252Z,11.20
2019-03-19T21:47:17.552Z,12.30
2019-03-19T21:49:45.217Z,12.60
2019-03-19T21:52:11.551Z,11.50
2019-03-19T21:54:37.830Z,12.77
2019-03-19T21:57:04.127Z,12.77
2019-03-19T21:59:30.417Z,12.03
2019-03-19T22:01:56.706Z,12.40
2019-03-19T22:04:23.262Z,12.07
2019-03-19T22:06:49.579Z,11.53
2019-03-19T22:09:15.898Z,14.17
2019-03-19T22:11:42.209Z,15.07
2019-03-19T22:14:08.531Z,13.30
2019-03-19T22:16:34.820Z,12.93
2019-03-19T22:19:01.145Z,13.13
2019-03-19T22:21:27.424Z,12.93
2019-03-19T22:23:53.733Z,12.13
2019-03-19T22:26:20.061Z,12.73
2019-03-19T22:28:46.373Z,12.23
2019-03-19T22:31:12.656Z,12.10
2019-03-19T22:33:38.957Z,13.43
2019-03-19T22:36:05.507Z,12.17
2019-03-19T22:38:31.843Z,12.80
2019-03-19T22:40:58.139Z,14.27
2019-03-19T22:43:25.974Z,14.13
2019-03-19T22:45:52.335Z,12.13
2019-03-19T22:48:18.637Z,13.17
2019-03-19T22:50:44.930Z,12.47
2019-03-19T22:53:11.331Z,12.43
2019-03-19T22:55:37.617Z,12.03
2019-03-19T22:58:03.935Z,11.37
2019-03-19T23:00:37.845Z,11.80
2019-03-19T23:03:05.030Z,11.27
2019-03-19T23:05:31.540Z,11.57
2019-03-19T23:07:58.027Z,11.50
2019-03-19T23:10:24.532Z,12.17
2019-03-19T23:12:50.819Z,12.33
2019-03-19T23:15:17.113Z,12.17
2019-03-19T23:17:43.503Z,10.87
2019-03-19T23:20:12.383Z,11.83
2019-03-19T23:22:38.780Z,11.73
2019-03-19T23:25:05.273Z,11.70
2019-03-19T23:27:31.558Z,11.87
2019-03-19T23:29:57.871Z,11.20
2019-03-19T23:32:24.906Z,11.80
2019-03-19T23:34:51.252Z,11.90
2019-03-19T23:37:17.545Z,11.40
2019-03-19T23:39:43.852Z,12.53
2019-03-19T23:42:10.138Z,12.43
2019-03-19T23:44:36.532Z,11.70
2019-03-19T23:47:02.939Z,12.17
2019-03-19T23:49:29.491Z,11.63
2019-03-19T23:51:55.902Z,11.33
2019-03-19T23:54:22.177Z,12.33
2019-03-19T23:56:48.484Z,12.03
2019-03-19T23:59:14.804Z,11.17
